Big Rapids, MI

11:16 PM EDT on August 25, 2019 (GMT -0400)
Roben-Hood

Weather History for KRQB - May, 2019

Change the Weather History Date:

Friday, May 17, 2019

  Actual Average Record
Temperature  
Mean Temperature 58 °F -  
Max Temperature 69 °F 70 °F 86 °F (1987)
Min Temperature 48 °F 42 °F 26 °F (2005)
Degree Days  
Heating Degree Days 6    
Growing Degree Days 8 (Base 50)    
Moisture  
Dew Point 39 °F    
Average Humidity 52    
Maximum Humidity 87    
Minimum Humidity 20    
Precipitation  
Precipitation 0.00 in - - ()
Sea Level Pressure  
Sea Level Pressure 29.86 in    
Wind  
Wind Speed 7 mph (North)    
Max Wind Speed 14 mph    
Max Gust Speed 23 mph    
Visibility 10 miles    
Events      
Averages and records for this station are not official NWS values.
T = Trace of Precipitation, MM = Missing Value Source: NWS Daily Summary

Daily Weather History Graph

Daily Weather History Graph

Search for Another Location

Airport or City:

Astronomy

May. 17, 2019 Rise Set
Actual Time 6:14 AM EDT 9:02 PM EDT
Civil Twilight 5:41 AM EDT 9:36 PM EDT
Nautical Twilight 4:59 AM EDT 10:18 PM EDT
Astronomical Twilight 4:10 AM EDT 11:07 PM EDT
Moon 7:45 PM EDT (5/17) 5:51 AM EDT (5/17)
Length of Visible Light 15h 54m
Length of Day
14h 47m
Waxing Gibbous, 98% of the Moon is Illuminated
May 17
Waxing Gibbous
May 18
Full
May 26
Last Quarter
Jun 3
New
Jun 10
First Quarter

Hourly Weather History & Observations

Time (EDT) Temp. Dew Point Humidity Pressure Visibility Wind Dir Wind Speed Gust Speed Precip Events Conditions
12:15 AM 59.5 °F 55.6 °F 87% 29.72 in 10.0 mi North 10.4 mph - N/A   Overcast
12:16 AM 59.5 °F 55.6 °F 87% 29.72 in 10.0 mi North 10.4 mph 17.3 mph N/A   Overcast
12:35 AM 59.0 °F 53.2 °F 81% 29.71 in 10.0 mi North 13.8 mph 23.0 mph N/A   Overcast
12:55 AM 58.3 °F 50.9 °F 76% 29.72 in 10.0 mi NNW 8.1 mph 20.7 mph N/A   Overcast
1:15 AM 57.9 °F 49.3 °F 73% 29.73 in 10.0 mi North 9.2 mph - N/A   Overcast
1:35 AM 57.6 °F 48.7 °F 72% 29.74 in 10.0 mi NW 6.9 mph - N/A   Overcast
1:36 AM 57.6 °F 48.7 °F 72% 29.74 in 10.0 mi NW 8.1 mph - N/A   Overcast
1:55 AM 58.1 °F 47.3 °F 67% 29.75 in 10.0 mi NNE 11.5 mph 21.9 mph N/A   Overcast
2:15 AM 57.6 °F 45.9 °F 65% 29.76 in 10.0 mi North 8.1 mph 18.4 mph N/A   Overcast
2:35 AM 57.4 °F 45.0 °F 63% 29.77 in 10.0 mi North 10.4 mph 17.3 mph N/A   Overcast
2:36 AM 57.4 °F 44.8 °F 63% 29.77 in 10.0 mi North 11.5 mph 17.3 mph N/A   Overcast
2:55 AM 57.2 °F 44.6 °F 63% 29.77 in 10.0 mi North 6.9 mph - N/A   Overcast
2:56 AM 57.2 °F 44.4 °F 62% 29.77 in 10.0 mi North 6.9 mph - N/A   Overcast
3:15 AM 57.0 °F 44.2 °F 62% 29.77 in 10.0 mi North 4.6 mph 16.1 mph N/A   Overcast
3:35 AM 56.5 °F 44.8 °F 65% 29.77 in 10.0 mi Calm Calm - N/A   Overcast
3:36 AM 56.5 °F 44.8 °F 65% 29.77 in 10.0 mi North 3.5 mph - N/A   Overcast
3:55 AM 55.8 °F 44.4 °F 66% 29.78 in 10.0 mi North 8.1 mph - N/A   Overcast
3:56 AM 55.8 °F 44.2 °F 65% 29.78 in 10.0 mi North 8.1 mph - N/A   Overcast
4:15 AM 54.5 °F 43.5 °F 66% 29.79 in 10.0 mi North 9.2 mph - N/A   Overcast
4:16 AM 54.5 °F 43.5 °F 66% 29.78 in 10.0 mi North 12.7 mph 16.1 mph N/A   Overcast
4:35 AM 53.8 °F 42.8 °F 66% 29.80 in 10.0 mi North 9.2 mph - N/A   Overcast
4:55 AM 52.9 °F 42.6 °F 68% 29.80 in 10.0 mi NNW 3.5 mph - N/A   Overcast
5:15 AM 52.7 °F 41.4 °F 65% 29.81 in 10.0 mi North 6.9 mph - N/A   Overcast
5:16 AM 52.5 °F 41.4 °F 66% 29.81 in 10.0 mi North 6.9 mph - N/A   Overcast
5:35 AM 51.6 °F 39.7 °F 64% 29.82 in 10.0 mi North 6.9 mph - N/A   Overcast
5:55 AM 50.9 °F 39.7 °F 66% 29.82 in 10.0 mi North 4.6 mph - N/A   Overcast
6:15 AM 50.4 °F 40.1 °F 68% 29.82 in 10.0 mi North 4.6 mph - N/A   Overcast
6:16 AM 50.2 °F 40.1 °F 68% 29.82 in 10.0 mi North 5.8 mph - N/A   Overcast
6:35 AM 50.0 °F 39.2 °F 66% 29.83 in 10.0 mi North 5.8 mph - N/A   Overcast
6:55 AM 49.3 °F 38.5 °F 66% 29.84 in 10.0 mi North 5.8 mph - N/A   Overcast
7:15 AM 49.3 °F 38.3 °F 66% 29.86 in 10.0 mi North 8.1 mph - N/A   Mostly Cloudy
7:35 AM 48.6 °F 38.5 °F 68% 29.87 in 10.0 mi North 10.4 mph - N/A   Mostly Cloudy
7:36 AM 48.6 °F 38.5 °F 68% 29.87 in 10.0 mi North 10.4 mph - N/A   Mostly Cloudy
7:55 AM 48.6 °F 38.7 °F 69% 29.86 in 10.0 mi North 8.1 mph - N/A   Scattered Clouds
7:56 AM 48.6 °F 38.8 °F 69% 29.86 in 10.0 mi North 6.9 mph - N/A   Scattered Clouds
8:15 AM 48.2 °F 39.2 °F 71% 29.87 in 10.0 mi NNE 8.1 mph - N/A   Clear
8:35 AM 48.4 °F 39.6 °F 72% 29.87 in 10.0 mi North 9.2 mph - N/A   Clear
8:36 AM 48.4 °F 39.7 °F 72% 29.87 in 10.0 mi North 10.4 mph - N/A   Clear
8:55 AM 48.2 °F 39.2 °F 71% 29.87 in 10.0 mi North 11.5 mph - N/A   Clear
8:56 AM 48.4 °F 39.2 °F 71% 29.87 in 10.0 mi North 10.4 mph - N/A   Clear
9:15 AM 48.9 °F 39.4 °F 70% 29.88 in 10.0 mi North 10.4 mph 17.3 mph N/A   Clear
9:35 AM 50.2 °F 39.7 °F 67% 29.87 in 10.0 mi North 12.7 mph - N/A   Clear
9:36 AM 50.2 °F 39.7 °F 67% 29.87 in 10.0 mi North 10.4 mph - N/A   Clear
9:55 AM 51.6 °F 39.7 °F 64% 29.87 in 10.0 mi North 10.4 mph - N/A   Clear
9:56 AM 51.8 °F 39.6 °F 63% 29.87 in 10.0 mi North 9.2 mph - N/A   Clear
10:15 AM 52.7 °F 38.8 °F 59% 29.88 in 10.0 mi North 6.9 mph - N/A   Clear
10:16 AM 52.7 °F 39.0 °F 60% 29.88 in 10.0 mi North 6.9 mph - N/A   Clear
10:35 AM 53.8 °F 39.6 °F 59% 29.89 in 10.0 mi North 6.9 mph - N/A   Clear
10:55 AM 54.3 °F 38.8 °F 56% 29.88 in 10.0 mi North 5.8 mph - N/A   Clear
11:15 AM 55.6 °F 38.3 °F 52% 29.88 in 10.0 mi NE 5.8 mph - N/A   Clear
11:16 AM 55.6 °F 38.3 °F 52% 29.88 in 10.0 mi NE 6.9 mph - N/A   Clear
11:35 AM 56.5 °F 38.7 °F 51% 29.88 in 10.0 mi North 6.9 mph - N/A   Clear
11:55 AM 57.4 °F 38.1 °F 49% 29.88 in 10.0 mi Calm Calm - N/A   Clear
12:15 PM 58.8 °F 38.1 °F 46% 29.88 in 10.0 mi North 10.4 mph - N/A   Clear
12:16 PM 59.0 °F 37.8 °F 45% 29.88 in 10.0 mi North 8.1 mph - N/A   Clear
12:35 PM 59.5 °F 37.2 °F 43% 29.88 in 10.0 mi North 6.9 mph - N/A   Clear
12:36 PM 59.5 °F 37.4 °F 44% 29.88 in 10.0 mi North 5.8 mph - N/A   Clear
12:55 PM 60.3 °F 37.4 °F 43% 29.88 in 10.0 mi NE 3.5 mph - N/A   Clear
1:15 PM 61.2 °F 37.0 °F 41% 29.89 in 10.0 mi North 3.5 mph - N/A   Clear
1:35 PM 63.1 °F 33.4 °F 33% 29.90 in 10.0 mi Calm Calm - N/A   Clear
1:36 PM 63.1 °F 33.3 °F 33% 29.90 in 10.0 mi Calm Calm - N/A   Clear
1:55 PM 63.1 °F 36.3 °F 37% 29.90 in 10.0 mi Calm Calm - N/A   Clear
2:15 PM 64.9 °F 30.6 °F 28% 29.90 in 10.0 mi Calm Calm - N/A   Clear
2:35 PM 65.7 °F 29.7 °F 26% 29.90 in 10.0 mi Calm Calm - N/A   Clear
2:36 PM 65.7 °F 29.7 °F 26% 29.90 in 10.0 mi Calm Calm - N/A   Clear
2:55 PM 65.7 °F 32.4 °F 29% 29.89 in 10.0 mi NE 6.9 mph - N/A   Clear
2:56 PM 65.8 °F 32.5 °F 29% 29.89 in 10.0 mi NE 6.9 mph - N/A   Clear
3:15 PM 65.8 °F 31.6 °F 28% 29.90 in 10.0 mi SSE 4.6 mph - N/A   Clear
3:35 PM 66.9 °F 34.5 °F 30% 29.89 in 10.0 mi North 4.6 mph - N/A   Clear
3:55 PM 68.2 °F 35.1 °F 29% 29.89 in 10.0 mi NNW 4.6 mph - N/A   Clear
3:56 PM 68.2 °F 34.9 °F 29% 29.89 in 10.0 mi NW 3.5 mph - N/A   Clear
4:15 PM 68.4 °F 33.3 °F 27% 29.89 in 10.0 mi NNW 5.8 mph - N/A   Mostly Cloudy
4:35 PM 69.1 °F 31.3 °F 25% 29.89 in 10.0 mi NNW 3.5 mph - N/A   Overcast
4:36 PM 68.9 °F 32.4 °F 26% 29.89 in 10.0 mi NW 4.6 mph - N/A   Overcast
4:55 PM 69.3 °F 26.4 °F 20% 29.88 in 10.0 mi NW 5.8 mph - N/A   Overcast
5:15 PM 69.6 °F 28.4 °F 22% 29.88 in 10.0 mi NNW 8.1 mph - N/A   Scattered Clouds
5:16 PM 69.6 °F 28.4 °F 22% 29.88 in 10.0 mi North 8.1 mph - N/A   Scattered Clouds
5:35 PM 67.5 °F 32.4 °F 27% 29.88 in 10.0 mi North 3.5 mph - N/A   Mostly Cloudy
5:36 PM 67.5 °F 32.2 °F 27% 29.88 in 10.0 mi North 3.5 mph - N/A   Mostly Cloudy
5:55 PM 67.3 °F 30.9 °F 26% 29.87 in 10.0 mi North 5.8 mph - N/A   Overcast
6:15 PM 67.1 °F 31.6 °F 27% 29.87 in 10.0 mi NNE 5.8 mph - N/A   Overcast
6:35 PM 66.6 °F 31.8 °F 27% 29.86 in 10.0 mi North 5.8 mph - N/A   Overcast
6:55 PM 65.7 °F 34.9 °F 32% 29.86 in 10.0 mi North 10.4 mph - N/A   Overcast
6:56 PM 65.5 °F 35.1 °F 32% 29.86 in 10.0 mi North 10.4 mph - N/A   Overcast
7:15 PM 64.4 °F 36.5 °F 36% 29.86 in 10.0 mi North 9.2 mph - N/A   Overcast
7:35 PM 63.7 °F 37.6 °F 38% 29.87 in 10.0 mi NNE 8.1 mph - N/A   Overcast
7:55 PM 62.8 °F 37.6 °F 39% 29.90 in 10.0 mi NE 5.8 mph - N/A   Overcast
7:56 PM 62.6 °F 37.6 °F 40% 29.90 in 10.0 mi NE 4.6 mph - N/A   Overcast
8:15 PM 62.6 °F 37.9 °F 40% 29.90 in 10.0 mi NNE 5.8 mph - N/A   Overcast
8:35 PM 60.8 °F 37.4 °F 42% 29.91 in 10.0 mi North 6.9 mph - N/A   Scattered Clouds
8:55 PM 58.5 °F 38.8 °F 48% 29.92 in 10.0 mi NW 4.6 mph - N/A   Scattered Clouds
8:56 PM 58.3 °F 38.8 °F 48% 29.92 in 10.0 mi NW 4.6 mph - N/A   Scattered Clouds
9:15 PM 57.4 °F 38.3 °F 49% 29.93 in 10.0 mi NW 5.8 mph - N/A   Scattered Clouds
9:16 PM 57.4 °F 38.3 °F 49% 29.93 in 10.0 mi NW 5.8 mph - N/A   Scattered Clouds
9:35 PM 55.9 °F 37.4 °F 50% 29.94 in 10.0 mi North 3.5 mph - N/A   Clear
9:36 PM 55.9 °F 37.4 °F 50% 29.94 in 10.0 mi North 3.5 mph - N/A   Clear
9:55 PM 54.7 °F 37.9 °F 53% 29.94 in 10.0 mi Calm Calm - N/A   Scattered Clouds
10:15 PM 54.0 °F 37.4 °F 54% 29.95 in 10.0 mi Calm Calm - N/A   Scattered Clouds
10:16 PM 54.0 °F 37.4 °F 54% 29.95 in 10.0 mi Calm Calm - N/A   Scattered Clouds
10:35 PM 52.9 °F 37.4 °F 56% 29.95 in 10.0 mi Calm Calm - N/A   Clear
10:36 PM 52.9 °F 37.2 °F 55% 29.95 in 10.0 mi Calm Calm - N/A   Clear
10:55 PM 52.2 °F 36.7 °F 56% 29.95 in 10.0 mi Calm Calm - N/A   Clear
11:15 PM 51.8 °F 35.6 °F 54% 29.95 in 10.0 mi Calm Calm - N/A   Clear
11:35 PM 51.4 °F 34.7 °F 53% 29.96 in 10.0 mi Calm Calm - N/A   Scattered Clouds
11:36 PM 51.3 °F 34.7 °F 53% 29.96 in 10.0 mi Calm Calm - N/A   Scattered Clouds
11:55 PM 51.3 °F 35.6 °F 55% 29.96 in 10.0 mi NE 3.5 mph - N/A   Mostly Cloudy